Time;durP1;ratioP1;P1;durP2;ratioP2;P2;SDS_P1;SDS_P2;PMS_P1;PMS_P2;Temp;Humidity;BMP_temperature;BMP_pressure;BME280_temperature;BME280_humidity;BME280_pressure;Samples;Min_cycle;Max_cycle;Signal;HPM_P1;HPM_P2
2022/05/18 00:00:58;;;;;;;7.80;3.50;;;;;;;20.93;54.37;100399.84;4962422;28;20101;-82
2022/05/18 00:03:33;;;;;;;6.07;3.88;;;;;;;20.91;54.23;100408.13;4980703;28;20509;-82
2022/05/18 00:06:00;;;;;;;5.03;3.55;;;;;;;20.92;54.14;100400.91;4973969;28;20456;-83
2022/05/18 00:08:28;;;;;;;7.40;3.65;;;;;;;20.88;54.02;100413.91;4976156;28;20498;-82
2022/05/18 00:10:55;;;;;;;4.28;3.88;;;;;;;20.85;54.13;100408.91;4977150;28;20134;-82
2022/05/18 00:13:22;;;;;;;8.10;4.13;;;;;;;20.84;54.33;100407.25;4969384;28;20042;-82
2022/05/18 00:15:49;;;;;;;5.15;3.95;;;;;;;20.83;54.31;100416.34;4950450;28;20050;-82
2022/05/18 00:18:21;;;;;;;4.22;3.83;;;;;;;20.79;54.22;100404.28;4976297;28;20403;-83
2022/05/18 00:20:47;;;;;;;6.13;3.60;;;;;;;20.77;54.48;100407.16;4985544;28;20398;-82
2022/05/18 00:23:14;;;;;;;4.25;3.50;;;;;;;20.74;54.37;100412.94;4965403;28;20042;-82
2022/05/18 00:25:41;;;;;;;4.22;3.65;;;;;;;20.76;54.33;100415.41;4959802;28;20058;-82
2022/05/18 00:28:08;;;;;;;5.70;3.72;;;;;;;20.72;54.37;100406.88;4950977;28;20045;-82
2022/05/18 00:30:38;;;;;;;9.52;3.97;;;;;;;20.71;54.32;100416.00;4970876;28;20054;-82
2022/05/18 00:33:09;;;;;;;7.85;4.28;;;;;;;20.70;54.42;100421.59;4967877;28;20050;-82
2022/05/18 00:35:38;;;;;;;5.20;3.95;;;;;;;20.68;54.41;100421.75;4977988;28;20047;-82
2022/05/18 00:41:50;;;;;;;5.28;3.83;;;;;;;20.64;54.44;100425.03;4922162;28;20034;-83
2022/05/18 00:44:17;;;;;;;5.57;4.07;;;;;;;20.63;54.32;100410.69;4996122;28;20051;-87
2022/05/18 00:46:44;;;;;;;11.73;4.55;;;;;;;20.60;54.72;100411.91;4995892;28;20591;-86
2022/05/18 00:49:10;;;;;;;4.85;4.35;;;;;;;20.58;54.35;100413.13;4960580;28;20058;-87
2022/05/18 00:51:41;;;;;;;8.63;3.90;;;;;;;20.54;54.63;100415.34;4978975;28;20042;-87
2022/05/18 00:54:29;;;;;;;6.70;3.80;;;;;;;20.51;55.07;100420.28;4965758;28;20047;-87
2022/05/18 00:57:13;;;;;;;7.72;3.90;;;;;;;20.49;55.11;100423.13;4929223;28;20047;-86
2022/05/18 00:59:49;;;;;;;7.45;4.05;;;;;;;20.47;55.02;100413.56;4903339;28;20411;-87
2022/05/18 01:02:17;;;;;;;7.90;4.60;;;;;;;20.44;54.60;100412.06;4988245;28;20652;-86
2022/05/18 01:04:46;;;;;;;8.43;4.25;;;;;;;20.41;54.98;100414.31;4965809;28;20042;-82
2022/05/18 01:07:36;;;;;;;7.95;4.22;;;;;;;20.37;54.87;100411.97;4974167;28;20046;-82
2022/05/18 01:10:04;;;;;;;5.43;3.85;;;;;;;20.36;54.87;100414.88;4918191;28;20069;-81
2022/05/18 01:12:31;;;;;;;7.07;4.35;;;;;;;20.35;55.06;100414.03;4952991;28;20050;-82
2022/05/18 01:15:08;;;;;;;4.97;3.70;;;;;;;20.31;55.00;100411.88;4970493;28;20077;-82
2022/05/18 01:17:37;;;;;;;5.53;4.05;;;;;;;20.29;54.89;100420.16;4976773;28;20062;-82
2022/05/18 01:20:32;;;;;;;9.20;4.40;;;;;;;20.27;55.06;100422.19;4941608;28;20051;-82
2022/05/18 01:23:31;;;;;;;6.03;4.43;;;;;;;20.29;54.78;100432.81;4898798;28;20066;-83
2022/05/18 01:25:58;;;;;;;6.55;4.20;;;;;;;20.25;54.78;100428.78;4949788;28;20057;-83
2022/05/18 01:28:30;;;;;;;5.95;4.60;;;;;;;20.22;55.16;100427.31;4974851;28;20126;-83
2022/05/18 01:30:57;;;;;;;5.23;4.20;;;;;;;20.22;55.05;100429.16;4979237;28;20046;-83
2022/05/18 01:33:24;;;;;;;7.32;4.00;;;;;;;20.19;55.12;100432.25;4951877;28;20454;-83
2022/05/18 01:35:52;;;;;;;6.65;4.10;;;;;;;20.17;55.10;100427.00;4987278;28;20038;-83
2022/05/18 01:38:18;;;;;;;7.22;4.45;;;;;;;20.15;55.05;100427.22;4962447;28;20121;-83
2022/05/18 01:40:59;;;;;;;6.00;4.40;;;;;;;20.11;55.33;100436.69;4950950;28;20054;-83
2022/05/18 01:43:50;;;;;;;8.57;4.05;;;;;;;20.09;55.60;100429.78;4961824;28;20046;-82
2022/05/18 01:46:18;;;;;;;5.93;4.10;;;;;;;20.09;55.35;100421.72;4908410;28;20144;-82
2022/05/18 01:48:48;;;;;;;6.15;3.97;;;;;;;20.07;55.44;100424.56;4949089;28;20051;-82
2022/05/18 01:51:27;;;;;;;7.15;4.55;;;;;;;20.02;55.55;100421.59;4962509;28;20047;-82
2022/05/18 01:53:54;;;;;;;7.53;4.72;;;;;;;20.06;55.47;100422.09;4965417;28;20050;-81
2022/05/18 01:56:20;;;;;;;8.02;4.97;;;;;;;20.01;55.41;100411.84;4979605;28;20072;-82
2022/05/18 01:58:47;;;;;;;4.65;4.00;;;;;;;20.00;55.68;100414.72;4984504;28;20124;-82
2022/05/18 02:01:14;;;;;;;5.50;4.20;;;;;;;19.99;55.53;100415.75;4961900;28;20049;-82
2022/05/18 02:03:41;;;;;;;6.15;4.47;;;;;;;19.97;55.67;100410.53;4978644;28;20042;-82
2022/05/18 02:06:07;;;;;;;6.78;4.70;;;;;;;19.94;55.59;100410.91;4976374;28;20054;-81
2022/05/18 02:08:34;;;;;;;6.97;4.55;;;;;;;19.94;55.57;100408.19;4978826;28;20047;-82
2022/05/18 02:11:01;;;;;;;7.13;4.47;;;;;;;19.93;55.67;100410.06;4968756;28;20043;-82
2022/05/18 02:13:28;;;;;;;7.43;4.40;;;;;;;19.94;55.72;100402.81;4978121;28;20066;-82
2022/05/18 02:15:54;;;;;;;6.22;4.13;;;;;;;19.93;55.58;100407.38;4962354;28;20102;-82
2022/05/18 02:18:21;;;;;;;4.68;4.22;;;;;;;19.90;55.77;100410.44;4967842;28;20051;-86
2022/05/18 02:20:48;;;;;;;6.75;4.85;;;;;;;19.92;55.77;100412.94;4965142;28;20046;-87
2022/05/18 02:23:16;;;;;;;5.95;4.70;;;;;;;19.91;55.84;100416.66;4962224;28;20409;-87
2022/05/18 02:25:42;;;;;;;9.48;5.22;;;;;;;19.87;55.83;100418.03;4974566;28;20070;-87
2022/05/18 02:28:09;;;;;;;9.38;4.93;;;;;;;19.85;55.61;100418.22;4959414;28;20051;-86
2022/05/18 02:30:37;;;;;;;10.88;5.50;;;;;;;19.85;55.70;100425.47;4938465;28;20498;-86
2022/05/18 02:33:04;;;;;;;9.68;5.15;;;;;;;19.81;55.66;100424.16;4948935;28;20053;-86
2022/05/18 02:35:31;;;;;;;8.63;5.25;;;;;;;19.67;55.88;100426.63;4953712;28;20050;-86
2022/05/18 02:37:58;;;;;;;7.63;5.07;;;;;;;19.63;55.92;100430.66;4955976;28;20508;-86
2022/05/18 02:40:24;;;;;;;6.22;4.65;;;;;;;19.56;56.00;100432.38;4974847;28;20038;-87
2022/05/18 02:42:51;;;;;;;12.82;4.93;;;;;;;19.56;55.97;100435.09;4950666;28;20052;-86
2022/05/18 02:45:19;;;;;;;9.10;4.75;;;;;;;19.57;55.78;100435.94;4975868;28;20054;-85
2022/05/18 02:47:46;;;;;;;6.70;5.05;;;;;;;19.60;55.77;100432.88;4975714;28;20186;-82
2022/05/18 02:50:13;;;;;;;6.28;4.85;;;;;;;19.60;56.05;100428.34;4948876;28;20096;-82
2022/05/18 02:52:40;;;;;;;7.97;4.82;;;;;;;19.62;55.93;100436.25;4965908;28;20141;-82
2022/05/18 02:57:53;;;;;;;6.65;4.82;;;;;;;19.60;55.94;100436.41;4966602;28;20042;-81
2022/05/18 03:00:20;;;;;;;7.45;5.20;;;;;;;19.60;55.69;100438.28;4977352;28;20128;-81
2022/05/18 03:02:47;;;;;;;7.13;5.35;;;;;;;19.60;55.92;100438.28;4985566;28;20045;-81
2022/05/18 03:05:14;;;;;;;7.22;4.60;;;;;;;19.53;56.03;100433.59;4950270;28;20410;-86
2022/05/18 03:07:41;;;;;;;8.70;5.30;;;;;;;19.50;56.00;100439.34;4957390;28;20051;-85
2022/05/18 03:10:08;;;;;;;7.03;5.07;;;;;;;19.46;56.02;100437.19;4962184;28;20092;-86
2022/05/18 03:12:40;;;;;;;7.00;5.00;;;;;;;19.43;56.07;100437.53;4984247;28;20043;-86
2022/05/18 03:15:13;;;;;;;4.78;4.28;;;;;;;19.42;56.26;100439.41;4875706;28;20106;-86
2022/05/18 03:17:40;;;;;;;6.97;5.05;;;;;;;19.41;56.22;100440.44;4880456;28;20130;-86
2022/05/18 03:20:08;;;;;;;10.40;5.88;;;;;;;19.39;56.11;100442.47;4944278;28;20093;-86
2022/05/18 03:25:22;;;;;;;7.43;5.03;;;;;;;19.34;56.24;100455.63;4921196;28;20620;-86
2022/05/18 03:28:05;;;;;;;6.45;4.85;;;;;;;19.30;56.32;100455.13;4885830;29;20058;-86
2022/05/18 03:30:32;;;;;;;8.85;5.65;;;;;;;19.29;56.42;100456.16;4910613;29;20052;-87
2022/05/18 03:32:59;;;;;;;7.20;4.88;;;;;;;19.26;56.29;100452.97;4924140;29;20686;-86
2022/05/18 03:35:26;;;;;;;7.13;5.25;;;;;;;19.23;56.43;100462.25;4919716;29;20600;-81
2022/05/18 03:37:53;;;;;;;8.20;5.13;;;;;;;19.22;56.45;100459.72;4895196;29;20594;-82
2022/05/18 03:40:20;;;;;;;6.60;5.13;;;;;;;19.19;56.44;100462.78;4921718;28;20118;-82
2022/05/18 03:42:47;;;;;;;7.53;5.10;;;;;;;19.13;56.81;100464.28;4944284;28;20155;-84
2022/05/18 03:45:14;;;;;;;8.77;4.63;;;;;;;19.10;56.63;100461.97;4925234;28;20073;-80
2022/05/18 03:47:42;;;;;;;7.43;4.78;;;;;;;19.09;56.66;100461.13;4894828;28;20047;-82
2022/05/18 03:50:08;;;;;;;8.68;5.00;;;;;;;19.07;56.72;100467.69;4927558;28;20051;-81
2022/05/18 03:52:35;;;;;;;9.55;5.10;;;;;;;19.06;57.12;100476.81;4914856;28;20051;-82
2022/05/18 03:55:02;;;;;;;7.72;5.07;;;;;;;19.04;56.98;100473.44;4897512;28;20044;-80
2022/05/18 03:57:28;;;;;;;6.40;4.82;;;;;;;19.03;56.94;100475.31;4915453;28;20051;-80
2022/05/18 03:59:55;;;;;;;6.50;5.25;;;;;;;19.04;57.02;100478.81;4959904;28;20367;-80
2022/05/18 04:02:22;;;;;;;5.72;5.10;;;;;;;19.03;57.06;100478.00;4966416;28;20458;-80
2022/05/18 04:04:48;;;;;;;7.78;4.72;;;;;;;19.02;57.09;100476.28;4960904;28;20562;-78
2022/05/18 04:07:15;;;;;;;7.45;5.32;;;;;;;19.08;57.37;100490.91;4961636;28;20057;-79
2022/05/18 04:09:45;;;;;;;8.32;5.63;;;;;;;19.17;57.37;100486.34;4977431;28;20050;-79
2022/05/18 04:12:11;;;;;;;7.22;5.35;;;;;;;19.34;57.28;100490.63;4964475;28;20454;-79
2022/05/18 04:14:38;;;;;;;11.02;5.70;;;;;;;19.45;56.97;100489.38;4980570;28;20053;-78
2022/05/18 04:17:05;;;;;;;8.40;5.70;;;;;;;19.43;56.57;100497.63;4991444;28;20058;-79
2022/05/18 04:19:33;;;;;;;9.00;5.28;;;;;;;19.30;56.49;100502.75;4975777;28;20046;-86
2022/05/18 04:21:59;;;;;;;10.82;6.07;;;;;;;19.26;56.43;100504.97;4945051;28;20076;-86
2022/05/18 04:24:26;;;;;;;9.90;6.00;;;;;;;19.23;56.60;100505.34;4954705;28;20057;-86
2022/05/18 04:26:53;;;;;;;9.30;5.90;;;;;;;19.20;56.66;100505.66;4970634;28;20038;-85
2022/05/18 04:29:20;;;;;;;6.70;5.07;;;;;;;19.20;56.69;100504.81;4964004;28;20066;-78
2022/05/18 04:31:47;;;;;;;8.13;5.97;;;;;;;19.16;56.39;100504.34;4968743;28;20081;-78
2022/05/18 04:34:15;;;;;;;8.23;6.05;;;;;;;19.13;56.65;100503.84;4961742;28;20059;-80
2022/05/18 04:36:43;;;;;;;9.90;5.95;;;;;;;19.09;56.73;100504.19;4965709;28;20053;-80
2022/05/18 04:39:09;;;;;;;9.60;6.25;;;;;;;19.06;56.87;100509.09;4963457;28;20043;-79
2022/05/18 04:41:36;;;;;;;10.15;5.55;;;;;;;19.09;56.75;100512.28;4972904;28;20046;-86
2022/05/18 04:44:03;;;;;;;8.77;5.35;;;;;;;19.15;56.93;100516.13;4980978;28;20403;-86
2022/05/18 04:46:29;;;;;;;10.35;6.22;;;;;;;19.24;56.90;100519.63;4969356;28;20446;-86
2022/05/18 04:48:56;;;;;;;10.55;6.90;;;;;;;19.29;56.68;100519.94;4973991;28;20053;-85
2022/05/18 04:51:23;;;;;;;9.77;6.22;;;;;;;19.33;56.44;100521.25;4976550;28;20057;-86
2022/05/18 04:53:50;;;;;;;9.30;5.72;;;;;;;19.36;56.64;100515.53;4977766;28;20131;-85
2022/05/18 04:56:17;;;;;;;11.40;6.55;;;;;;;19.39;56.63;100517.88;4976675;28;20046;-85
2022/05/18 04:58:44;;;;;;;10.57;5.85;;;;;;;19.39;56.67;100517.03;4978004;28;20042;-86
2022/05/18 05:01:11;;;;;;;9.60;5.55;;;;;;;19.40;56.46;100518.69;4978076;28;20061;-86
2022/05/18 05:03:38;;;;;;;8.98;6.03;;;;;;;19.40;56.66;100529.47;4982216;28;20054;-86
2022/05/18 05:06:05;;;;;;;9.93;6.32;;;;;;;19.41;56.88;100532.00;4979937;28;20054;-86
2022/05/18 05:08:34;;;;;;;10.00;6.10;;;;;;;19.44;56.82;100533.50;4981220;28;20047;-86
2022/05/18 05:11:02;;;;;;;11.85;6.97;;;;;;;19.49;56.79;100534.66;4966025;28;20050;-86
2022/05/18 05:13:29;;;;;;;9.77;6.18;;;;;;;19.53;56.68;100537.81;4959002;28;20384;-86
2022/05/18 05:16:07;;;;;;;8.80;5.78;;;;;;;19.56;56.88;100544.69;4972491;28;20661;-78
2022/05/18 05:18:34;;;;;;;11.25;6.35;;;;;;;19.63;56.95;100545.69;4947674;28;20117;-78
2022/05/18 05:21:01;;;;;;;8.57;5.95;;;;;;;19.64;56.94;100545.50;4970137;28;20050;-82
2022/05/18 05:23:28;;;;;;;11.00;6.15;;;;;;;19.66;56.84;100553.41;4982148;28;20042;-82
2022/05/18 05:25:56;;;;;;;12.75;6.10;;;;;;;19.69;56.76;100548.53;4983715;28;20057;-82
2022/05/18 05:28:22;;;;;;;9.25;6.60;;;;;;;19.72;56.76;100550.03;4968345;28;20046;-82
2022/05/18 05:30:49;;;;;;;9.73;5.90;;;;;;;19.70;57.18;100546.69;4979444;28;20046;-82
2022/05/18 05:33:16;;;;;;;11.23;6.90;;;;;;;19.73;57.03;100543.63;4986948;28;20044;-82
2022/05/18 05:35:43;;;;;;;9.85;6.65;;;;;;;19.75;57.04;100543.47;4983627;28;20042;-81
2022/05/18 05:38:11;;;;;;;15.13;6.95;;;;;;;19.73;57.06;100541.75;4965278;28;20037;-82
2022/05/18 05:40:38;;;;;;;10.70;6.28;;;;;;;19.79;57.10;100544.75;4976860;28;20084;-78
2022/05/18 05:43:10;;;;;;;10.63;6.35;;;;;;;19.80;57.33;100541.91;4963552;28;20057;-78
2022/05/18 05:45:37;;;;;;;14.30;7.07;;;;;;;19.89;57.14;100548.06;4979606;28;20074;-78
2022/05/18 05:48:05;;;;;;;10.05;6.53;;;;;;;19.91;57.45;100548.72;4979591;28;20038;-78
2022/05/18 05:50:32;;;;;;;13.18;6.60;;;;;;;19.93;57.64;100542.13;4963874;28;20054;-78
2022/05/18 05:52:59;;;;;;;12.35;6.80;;;;;;;19.99;57.26;100551.34;4965979;28;20857;-79
2022/05/18 05:55:26;;;;;;;13.43;7.00;;;;;;;20.01;57.46;100551.19;4974065;28;20053;-78
2022/05/18 05:57:54;;;;;;;11.18;6.85;;;;;;;20.01;57.34;100551.19;4962800;28;21097;-78
2022/05/18 06:00:22;;;;;;;12.00;7.20;;;;;;;20.07;57.70;100558.53;4966124;28;20047;-78
2022/05/18 06:02:50;;;;;;;11.52;7.40;;;;;;;20.06;58.09;100555.03;4968952;28;20460;-78
2022/05/18 06:05:17;;;;;;;8.75;6.18;;;;;;;20.11;58.32;100563.41;4976383;28;20100;-78
2022/05/18 06:07:45;;;;;;;10.60;6.78;;;;;;;20.09;58.13;100565.44;5002028;28;20075;-78
2022/05/18 06:10:12;;;;;;;16.73;6.80;;;;;;;20.11;57.78;100566.09;4977952;28;20077;-78
2022/05/18 06:12:39;;;;;;;10.77;6.80;;;;;;;20.13;57.35;100561.38;4981636;28;20039;-78
2022/05/18 06:15:08;;;;;;;13.55;7.38;;;;;;;20.19;57.74;100558.97;4976074;28;20073;-78
2022/05/18 06:17:35;;;;;;;12.27;7.25;;;;;;;20.19;57.85;100569.75;4968622;28;20134;-78
2022/05/18 06:20:03;;;;;;;10.02;6.57;;;;;;;20.21;57.83;100568.56;4951000;28;20126;-78
2022/05/18 06:22:30;;;;;;;10.95;7.45;;;;;;;20.29;57.24;100562.25;4957410;28;20051;-78
2022/05/18 06:24:57;;;;;;;13.45;6.53;;;;;;;20.33;57.14;100577.06;4962081;28;20056;-82
2022/05/18 06:27:23;;;;;;;8.93;6.35;;;;;;;20.36;56.87;100577.53;4962204;28;20565;-82
2022/05/18 06:29:50;;;;;;;11.27;6.88;;;;;;;20.41;57.03;100576.16;4977276;28;20101;-81
2022/05/18 06:32:17;;;;;;;11.48;6.55;;;;;;;20.45;57.28;100578.28;4973260;28;20049;-82
2022/05/18 06:34:48;;;;;;;11.70;6.78;;;;;;;20.48;57.35;100586.06;4978544;28;20097;-82
2022/05/18 06:37:15;;;;;;;10.23;6.45;;;;;;;20.53;57.36;100593.56;4982343;28;20047;-82
2022/05/18 06:39:42;;;;;;;10.85;6.38;;;;;;;20.41;57.37;100579.69;4979371;28;20551;-82
2022/05/18 06:42:08;;;;;;;15.05;6.78;;;;;;;20.34;58.00;100586.84;4967858;28;20513;-82
2022/05/18 06:44:41;;;;;;;16.25;6.78;;;;;;;20.40;57.86;100583.41;4980979;28;20134;-82
2022/05/18 06:47:08;;;;;;;14.63;6.80;;;;;;;20.47;58.11;100583.53;4981663;28;20056;-82
2022/05/18 06:49:35;;;;;;;10.38;6.50;;;;;;;20.53;58.06;100577.38;4971585;28;20046;-82
2022/05/18 06:52:02;;;;;;;10.13;6.97;;;;;;;20.55;58.03;100580.78;4994865;28;20402;-82
2022/05/18 06:54:54;;;;;;;11.95;6.47;;;;;;;20.50;58.67;100580.44;4963884;28;20051;-82
2022/05/18 06:57:26;;;;;;;11.30;6.32;;;;;;;20.64;58.20;100578.84;4934271;28;20533;-83
2022/05/18 06:59:53;;;;;;;10.93;6.75;;;;;;;20.72;58.27;100573.38;4972231;28;20609;-83
2022/05/18 07:02:20;;;;;;;12.65;6.70;;;;;;;20.68;58.22;100574.75;4975373;28;20125;-81
2022/05/18 07:04:47;;;;;;;10.05;6.45;;;;;;;20.67;58.57;100570.38;4976578;28;20077;-82
2022/05/18 07:07:17;;;;;;;11.57;6.90;;;;;;;20.72;58.37;100568.81;4968112;28;20479;-82
2022/05/18 07:09:44;;;;;;;12.60;6.95;;;;;;;20.79;58.22;100568.91;4957006;28;20058;-82
2022/05/18 07:12:11;;;;;;;9.68;6.38;;;;;;;20.79;58.20;100564.34;4967325;28;20101;-81
2022/05/18 07:14:37;;;;;;;13.07;6.57;;;;;;;20.79;57.68;100564.34;4961842;28;20547;-82
2022/05/18 07:17:04;;;;;;;8.35;6.40;;;;;;;20.78;58.72;100573.47;4979336;28;20042;-82
2022/05/18 07:19:31;;;;;;;10.68;6.45;;;;;;;20.87;59.07;100571.53;4956122;28;20054;-82
2022/05/18 07:21:58;;;;;;;10.80;6.68;;;;;;;20.92;58.67;100566.41;4970787;28;22883;-79
2022/05/18 07:24:25;;;;;;;13.10;6.95;;;;;;;20.95;59.01;100579.53;4980185;28;20054;-78
2022/05/18 07:27:19;;;;;;;10.85;7.30;;;;;;;20.93;59.22;100564.53;4979722;28;20052;-79
2022/05/18 07:29:46;;;;;;;10.20;6.63;;;;;;;21.09;59.10;100566.22;4916785;28;20046;-81
2022/05/18 07:32:13;;;;;;;12.23;6.22;;;;;;;21.10;59.31;100555.25;4961189;28;20047;-79
2022/05/18 07:34:44;;;;;;;10.02;6.07;;;;;;;21.17;58.05;100556.16;4980114;28;20484;-79
2022/05/18 07:37:13;;;;;;;14.50;6.53;;;;;;;21.24;58.32;100561.63;4966081;28;20046;-79
2022/05/18 07:39:41;;;;;;;10.32;6.00;;;;;;;21.27;58.43;100561.28;4979420;28;20054;-79
2022/05/18 07:42:08;;;;;;;9.25;6.20;;;;;;;21.30;58.46;100557.38;4970954;28;20046;-81
2022/05/18 07:44:35;;;;;;;13.20;6.90;;;;;;;21.38;57.99;100555.44;4960469;28;20395;-78
2022/05/18 07:47:03;;;;;;;10.88;6.97;;;;;;;21.39;58.07;100559.78;4965967;28;20047;-80
2022/05/18 07:49:38;;;;;;;10.63;6.40;;;;;;;21.44;57.91;100564.63;4952392;28;20054;-79
2022/05/18 07:52:05;;;;;;;10.55;6.30;;;;;;;21.45;58.01;100556.34;4979754;28;20526;-79
2022/05/18 07:54:32;;;;;;;6.38;5.35;;;;;;;21.49;57.94;100564.06;4971438;28;20618;-79
2022/05/18 07:56:59;;;;;;;11.48;6.03;;;;;;;21.55;57.85;100561.47;4984812;28;20521;-79
2022/05/18 07:59:26;;;;;;;10.23;5.10;;;;;;;21.51;58.31;100562.84;4978753;28;20393;-80
2022/05/18 08:01:53;;;;;;;7.20;5.43;;;;;;;21.58;58.18;100569.19;4967246;28;20046;-79
2022/05/18 08:04:20;;;;;;;8.40;5.13;;;;;;;21.67;57.39;100567.19;4949102;28;20061;-79
2022/05/18 08:06:48;;;;;;;6.38;5.07;;;;;;;21.67;57.79;100557.22;4961909;28;20046;-79
2022/05/18 08:09:22;;;;;;;6.20;4.35;;;;;;;21.74;56.95;100564.56;4967198;28;20403;-79
2022/05/18 08:17:21;;;;;;;10.30;4.55;;;;;;;22.01;55.59;100563.00;4974213;28;20057;-78
2022/05/18 08:19:48;;;;;;;5.93;4.65;;;;;;;21.98;56.37;100564.22;4962215;28;20051;-85
2022/05/18 08:22:16;;;;;;;6.53;4.25;;;;;;;22.03;55.55;100569.03;4973968;28;20050;-84
2022/05/18 08:24:44;;;;;;;9.95;5.40;;;;;;;22.09;55.44;100569.09;4974365;28;20066;-84
2022/05/18 08:27:14;;;;;;;7.68;4.70;;;;;;;22.12;55.10;100559.78;4975099;28;20506;-85
2022/05/18 08:29:42;;;;;;;7.32;4.38;;;;;;;22.15;54.95;100572.91;4950836;28;20122;-85
2022/05/18 08:32:09;;;;;;;7.63;4.20;;;;;;;22.11;54.51;100564.34;4981732;28;20054;-85
2022/05/18 08:34:35;;;;;;;8.00;4.93;;;;;;;22.20;53.51;100566.94;4961611;28;20051;-84
2022/05/18 08:37:03;;;;;;;8.40;4.38;;;;;;;22.18;54.53;100575.22;4992906;28;20057;-85
2022/05/18 08:39:29;;;;;;;7.35;3.80;;;;;;;22.18;54.47;100567.09;4978457;28;20445;-85
2022/05/18 08:41:57;;;;;;;7.10;4.90;;;;;;;22.19;53.73;100568.81;4994908;28;20050;-84
2022/05/18 08:44:32;;;;;;;5.35;3.90;;;;;;;22.23;52.73;100561.97;4963962;28;20035;-80
2022/05/18 08:47:20;;;;;;;7.22;3.97;;;;;;;22.25;52.46;100565.34;4999645;28;20057;-79
2022/05/18 08:49:56;;;;;;;6.57;4.63;;;;;;;22.26;52.44;100569.72;4966937;28;20572;-79
2022/05/18 08:52:44;;;;;;;10.90;4.43;;;;;;;22.28;51.40;100572.22;4990419;28;20074;-80
2022/05/18 08:55:36;;;;;;;6.32;3.70;;;;;;;22.33;50.90;100564.34;4932396;28;20414;-78
2022/05/18 08:58:27;;;;;;;6.45;3.90;;;;;;;22.41;52.01;100558.81;4913340;28;20137;-79
2022/05/18 09:00:58;;;;;;;7.95;3.92;;;;;;;22.49;52.48;100557.81;4927104;28;20039;-83
2022/05/18 09:03:37;;;;;;;7.47;3.60;;;;;;;22.44;50.72;100550.31;4984710;28;20050;-83
2022/05/18 09:06:18;;;;;;;8.32;4.10;;;;;;;22.59;51.85;100557.47;4962030;28;20050;-83
2022/05/18 09:10:12;;;;;;;7.60;3.67;;;;;;;22.56;50.71;100555.19;4959588;28;20525;-80
2022/05/18 09:11:40;;;;;;;7.18;4.38;;;;;;;22.58;51.52;100551.25;4895252;29;20439;-79
2022/05/18 09:14:10;;;;;;;7.93;3.97;;;;;;;22.62;51.69;100552.53;4903315;29;20062;-80
2022/05/18 09:17:31;;;;;;;7.95;5.05;;;;;;;22.58;50.88;100553.94;4907209;28;20619;-79
2022/05/18 09:20:17;;;;;;;8.30;4.63;;;;;;;22.60;52.41;100546.47;4880093;29;20039;-79
2022/05/18 09:23:05;;;;;;;7.90;4.43;;;;;;;22.63;51.22;100546.06;4870715;29;20052;-79
2022/05/18 09:25:43;;;;;;;7.10;4.22;;;;;;;22.72;51.49;100547.59;4878640;28;20047;-79
2022/05/18 09:28:36;;;;;;;12.93;4.82;;;;;;;22.76;51.54;100546.16;4929205;28;20186;-79
2022/05/18 09:31:21;;;;;;;7.78;4.25;;;;;;;22.88;51.20;100542.91;4901167;28;20070;-80
2022/05/18 09:34:25;;;;;;;9.15;4.65;;;;;;;22.82;52.60;100543.69;4928890;28;20054;-80
2022/05/18 09:37:16;;;;;;;10.80;4.28;;;;;;;22.90;51.45;100536.25;4853423;28;20046;-80
2022/05/18 09:39:51;;;;;;;7.97;4.30;;;;;;;22.94;51.30;100542.94;4881492;29;20485;-78
2022/05/18 09:42:20;;;;;;;6.78;4.70;;;;;;;23.03;51.18;100549.06;4947364;28;20051;-79
2022/05/18 09:44:57;;;;;;;5.68;4.30;;;;;;;22.98;50.58;100545.28;4970758;28;20042;-79
2022/05/18 09:47:27;;;;;;;11.40;5.53;;;;;;;23.04;51.11;100544.50;4994300;28;20546;-79
2022/05/18 09:49:56;;;;;;;5.32;4.00;;;;;;;23.00;52.35;100544.06;4951370;28;20046;-78
2022/05/18 09:52:29;;;;;;;8.38;4.28;;;;;;;23.02;50.31;100538.44;4964559;28;20116;-78
2022/05/18 09:54:58;;;;;;;5.55;4.15;;;;;;;23.08;51.35;100537.66;4967109;28;20054;-79
2022/05/18 09:57:25;;;;;;;8.50;4.38;;;;;;;23.12;51.17;100531.59;4952073;28;20485;-78
2022/05/18 09:59:57;;;;;;;8.55;4.75;;;;;;;23.13;50.51;100540.59;4983168;28;20046;-79
2022/05/18 10:08:13;;;;;;;4.80;3.38;;;;;;;23.26;46.77;100528.97;4931222;28;20121;-85
2022/05/18 10:10:41;;;;;;;9.18;3.83;;;;;;;23.28;48.88;100527.72;4977704;28;20069;-86
2022/05/18 10:13:16;;;;;;;5.65;3.72;;;;;;;23.28;47.21;100530.44;4983116;28;20131;-83
2022/05/18 10:16:17;;;;;;;6.55;3.70;;;;;;;23.35;47.37;100527.75;4966903;28;20082;-83
2022/05/18 10:18:45;;;;;;;5.20;2.97;;;;;;;23.36;46.51;100522.13;4930792;28;20043;-84
2022/05/18 10:21:22;;;;;;;3.08;2.60;;;;;;;23.36;46.32;100522.13;4939218;28;20561;-80
2022/05/18 10:24:02;;;;;;;4.97;3.03;;;;;;;23.34;45.13;100524.19;4941235;28;20129;-80
2022/05/18 10:26:40;;;;;;;5.05;3.00;;;;;;;23.37;45.00;100526.50;4937554;28;20047;-80
2022/05/18 10:29:21;;;;;;;4.53;3.28;;;;;;;23.33;44.76;100517.13;4928584;28;20058;-80
2022/05/18 10:32:10;;;;;;;3.20;2.72;;;;;;;23.33;44.12;100518.97;4949545;28;20042;-80
2022/05/18 10:34:48;;;;;;;5.88;2.88;;;;;;;23.39;45.95;100518.19;4950323;28;20039;-79
2022/05/18 10:37:25;;;;;;;4.20;2.80;;;;;;;23.39;44.21;100512.75;4977195;28;20053;-79
2022/05/18 10:39:56;;;;;;;4.20;2.83;;;;;;;23.46;45.77;100516.34;4936876;28;20055;-80
2022/05/18 10:42:29;;;;;;;5.07;3.13;;;;;;;23.54;44.77;100507.19;4964291;28;20055;-80
2022/05/18 10:45:00;;;;;;;5.05;2.90;;;;;;;23.65;44.66;100508.44;4958398;28;20049;-86
2022/05/18 10:47:31;;;;;;;4.53;3.00;;;;;;;23.61;44.87;100505.31;4969705;28;20046;-86
2022/05/18 10:50:11;;;;;;;6.38;2.70;;;;;;;23.62;44.41;100494.25;4971336;28;20430;-86
2022/05/18 10:52:38;;;;;;;7.10;2.90;;;;;;;23.73;45.60;100498.28;4975796;28;20046;-85
2022/05/18 10:55:16;;;;;;;3.97;2.90;;;;;;;23.72;43.57;100496.63;4983639;28;20432;-84
2022/05/18 10:57:59;;;;;;;3.42;3.08;;;;;;;23.72;43.52;100485.75;4969379;28;20058;-86
2022/05/18 11:00:46;;;;;;;4.35;2.78;;;;;;;23.69;44.09;100483.44;4950336;28;20045;-78
2022/05/18 11:03:35;;;;;;;3.38;2.80;;;;;;;23.72;43.03;100487.63;4977396;28;20042;-78
2022/05/18 11:06:07;;;;;;;4.35;2.65;;;;;;;23.80;43.79;100484.72;4973391;28;20065;-78
2022/05/18 11:08:34;;;;;;;4.93;3.08;;;;;;;23.87;44.17;100482.03;4967014;28;20070;-78
2022/05/18 11:11:07;;;;;;;3.53;2.70;;;;;;;23.88;41.76;100473.69;4973790;28;20487;-78
2022/05/18 11:13:45;;;;;;;4.63;2.35;;;;;;;23.91;43.04;100475.97;4970979;28;20054;-78
2022/05/18 11:16:21;;;;;;;3.50;2.55;;;;;;;23.91;42.91;100477.84;4985867;28;20401;-83
2022/05/18 11:18:58;;;;;;;8.15;3.30;;;;;;;23.93;43.69;100471.19;4988689;28;20481;-85
2022/05/18 11:21:48;;;;;;;5.80;2.85;;;;;;;23.99;43.08;100466.78;4978873;28;20046;-86
2022/05/18 11:24:37;;;;;;;4.65;2.83;;;;;;;24.05;44.10;100460.56;4958199;28;20046;-86
2022/05/18 11:27:49;;;;;;;4.50;3.33;;;;;;;24.02;42.19;100452.84;4929504;28;20038;-85
2022/05/18 11:31:10;;;;;;;5.00;3.40;;;;;;;24.04;43.52;100454.28;4960594;28;20068;-82
2022/05/18 11:33:47;;;;;;;5.68;3.47;;;;;;;24.10;43.80;100455.34;4901687;28;20118;-82
2022/05/18 11:36:41;;;;;;;6.20;3.72;;;;;;;24.13;43.33;100448.66;4980728;28;20058;-82
2022/05/18 11:39:11;;;;;;;;;;;;;;;24.07;44.26;100447.63;4956944;28;20074;-80
2022/05/18 11:41:47;;;;;;;3.42;3.13;;;;;;;24.23;44.35;100440.91;4984092;28;19922;-79
2022/05/18 11:44:43;;;;;;;3.72;2.83;;;;;;;24.21;42.35;100443.81;4990484;28;20517;-80
2022/05/18 11:47:31;;;;;;;4.18;2.70;;;;;;;24.25;40.99;100447.81;4961022;28;20467;-79
2022/05/18 11:50:26;;;;;;;4.95;2.63;;;;;;;24.24;40.38;100440.69;4946961;28;20450;-79
2022/05/18 11:53:05;;;;;;;4.45;2.63;;;;;;;24.33;41.30;100443.22;4938709;28;20042;-80
2022/05/18 11:56:09;;;;;;;6.07;2.90;;;;;;;24.25;41.14;100442.38;4988513;28;20125;-81
2022/05/18 11:58:49;;;;;;;5.72;3.08;;;;;;;24.39;42.02;100436.91;4939708;28;20130;-79
2022/05/18 12:01:48;;;;;;;5.90;2.85;;;;;;;24.38;41.01;100429.84;4964093;28;20042;-80
2022/05/18 12:04:23;;;;;;;4.95;2.85;;;;;;;24.46;42.11;100426.91;4953199;28;20566;-80
2022/05/18 12:07:17;;;;;;;5.38;2.65;;;;;;;24.45;41.07;100433.38;4952740;28;20159;-79